sensor_id;sensor_type;location;lat;lon;timestamp;P1;durP1;ratioP1;P2;durP2;ratioP2
75012;SDS011;63567;49.956;20.130;2023-09-12T00:01:46;16.57;;;15.27;;
75012;SDS011;63567;49.956;20.130;2023-09-12T00:04:11;15.67;;;14.27;;
75012;SDS011;63567;49.956;20.130;2023-09-12T00:06:37;17.13;;;15.73;;
75012;SDS011;63567;49.956;20.130;2023-09-12T00:09:02;16.58;;;15.20;;
75012;SDS011;63567;49.956;20.130;2023-09-12T00:11:30;13.45;;;12.15;;
75012;SDS011;63567;49.956;20.130;2023-09-12T00:13:55;16.30;;;14.88;;
75012;SDS011;63567;49.956;20.130;2023-09-12T00:16:21;15.03;;;13.63;;
75012;SDS011;63567;49.956;20.130;2023-09-12T00:18:46;16.43;;;15.07;;
75012;SDS011;63567;49.956;20.130;2023-09-12T00:21:11;15.60;;;14.20;;
75012;SDS011;63567;49.956;20.130;2023-09-12T00:23:36;15.40;;;13.90;;
75012;SDS011;63567;49.956;20.130;2023-09-12T00:26:02;18.03;;;16.50;;
75012;SDS011;63567;49.956;20.130;2023-09-12T00:28:27;17.80;;;16.30;;
75012;SDS011;63567;49.956;20.130;2023-09-12T00:30:52;17.90;;;16.20;;
75012;SDS011;63567;49.956;20.130;2023-09-12T00:33:18;16.45;;;14.98;;
75012;SDS011;63567;49.956;20.130;2023-09-12T00:35:44;15.43;;;14.07;;
75012;SDS011;63567;49.956;20.130;2023-09-12T00:38:10;16.13;;;14.77;;
75012;SDS011;63567;49.956;20.130;2023-09-12T00:40:35;17.27;;;15.88;;
75012;SDS011;63567;49.956;20.130;2023-09-12T00:43:00;17.65;;;16.05;;
75012;SDS011;63567;49.956;20.130;2023-09-12T00:45:26;15.23;;;13.80;;
75012;SDS011;63567;49.956;20.130;2023-09-12T00:47:51;16.40;;;14.87;;
75012;SDS011;63567;49.956;20.130;2023-09-12T00:50:17;16.02;;;14.70;;
75012;SDS011;63567;49.956;20.130;2023-09-12T00:52:45;15.70;;;14.30;;
75012;SDS011;63567;49.956;20.130;2023-09-12T00:55:12;15.35;;;14.05;;
75012;SDS011;63567;49.956;20.130;2023-09-12T00:57:37;14.13;;;12.65;;
75012;SDS011;63567;49.956;20.130;2023-09-12T01:00:03;15.82;;;14.52;;
75012;SDS011;63567;49.956;20.130;2023-09-12T01:02:39;16.65;;;15.15;;
75012;SDS011;63567;49.956;20.130;2023-09-12T01:05:06;15.45;;;13.90;;
75012;SDS011;63567;49.956;20.130;2023-09-12T01:07:32;15.48;;;14.07;;
75012;SDS011;63567;49.956;20.130;2023-09-12T01:09:58;16.55;;;15.25;;
75012;SDS011;63567;49.956;20.130;2023-09-12T01:12:24;16.67;;;15.17;;
75012;SDS011;63567;49.956;20.130;2023-09-12T01:14:49;15.57;;;14.17;;
75012;SDS011;63567;49.956;20.130;2023-09-12T01:17:14;16.20;;;14.90;;
75012;SDS011;63567;49.956;20.130;2023-09-12T01:19:40;15.30;;;14.00;;
75012;SDS011;63567;49.956;20.130;2023-09-12T01:27:50;15.20;;;13.90;;
75012;SDS011;63567;49.956;20.130;2023-09-12T01:30:17;14.65;;;13.35;;
75012;SDS011;63567;49.956;20.130;2023-09-12T01:32:43;16.02;;;14.43;;
75012;SDS011;63567;49.956;20.130;2023-09-12T01:35:09;16.60;;;15.10;;
75012;SDS011;63567;49.956;20.130;2023-09-12T01:37:34;15.43;;;14.13;;
75012;SDS011;63567;49.956;20.130;2023-09-12T01:39:59;16.73;;;15.13;;
75012;SDS011;63567;49.956;20.130;2023-09-12T01:42:27;15.88;;;14.48;;
75012;SDS011;63567;49.956;20.130;2023-09-12T01:45:00;15.15;;;13.73;;
75012;SDS011;63567;49.956;20.130;2023-09-12T01:47:26;14.38;;;13.18;;
75012;SDS011;63567;49.956;20.130;2023-09-12T01:49:54;15.57;;;14.18;;
75012;SDS011;63567;49.956;20.130;2023-09-12T01:52:22;15.93;;;14.50;;
75012;SDS011;63567;49.956;20.130;2023-09-12T01:54:49;12.38;;;11.18;;
75012;SDS011;63567;49.956;20.130;2023-09-12T01:57:15;16.33;;;14.73;;
75012;SDS011;63567;49.956;20.130;2023-09-12T01:59:41;14.57;;;13.27;;
75012;SDS011;63567;49.956;20.130;2023-09-12T02:02:07;16.15;;;14.75;;
75012;SDS011;63567;49.956;20.130;2023-09-12T02:04:32;16.37;;;14.93;;
75012;SDS011;63567;49.956;20.130;2023-09-12T02:06:57;15.03;;;13.73;;
75012;SDS011;63567;49.956;20.130;2023-09-12T02:09:23;12.55;;;11.35;;
75012;SDS011;63567;49.956;20.130;2023-09-12T02:11:48;14.55;;;13.25;;
75012;SDS011;63567;49.956;20.130;2023-09-12T02:14:14;15.93;;;14.52;;
75012;SDS011;63567;49.956;20.130;2023-09-12T02:16:39;14.73;;;13.50;;
75012;SDS011;63567;49.956;20.130;2023-09-12T02:19:05;16.37;;;15.07;;
75012;SDS011;63567;49.956;20.130;2023-09-12T02:21:31;17.00;;;15.60;;
75012;SDS011;63567;49.956;20.130;2023-09-12T02:23:57;12.10;;;10.90;;
75012;SDS011;63567;49.956;20.130;2023-09-12T02:26:22;14.33;;;13.03;;
75012;SDS011;63567;49.956;20.130;2023-09-12T02:28:47;14.73;;;13.53;;
75012;SDS011;63567;49.956;20.130;2023-09-12T02:31:12;14.33;;;13.07;;
75012;SDS011;63567;49.956;20.130;2023-09-12T02:33:38;15.07;;;13.77;;
75012;SDS011;63567;49.956;20.130;2023-09-12T02:36:04;14.70;;;13.43;;
75012;SDS011;63567;49.956;20.130;2023-09-12T02:38:30;14.73;;;13.52;;
75012;SDS011;63567;49.956;20.130;2023-09-12T02:40:55;14.10;;;12.80;;
75012;SDS011;63567;49.956;20.130;2023-09-12T02:43:20;15.93;;;14.63;;
75012;SDS011;63567;49.956;20.130;2023-09-12T02:45:46;14.03;;;12.63;;
75012;SDS011;63567;49.956;20.130;2023-09-12T02:48:11;15.57;;;14.27;;
75012;SDS011;63567;49.956;20.130;2023-09-12T02:50:37;14.50;;;13.10;;
75012;SDS011;63567;49.956;20.130;2023-09-12T02:53:02;14.93;;;13.53;;
75012;SDS011;63567;49.956;20.130;2023-09-12T02:55:27;14.23;;;12.88;;
75012;SDS011;63567;49.956;20.130;2023-09-12T02:57:53;15.77;;;14.47;;
75012;SDS011;63567;49.956;20.130;2023-09-12T03:00:18;14.67;;;13.43;;
75012;SDS011;63567;49.956;20.130;2023-09-12T03:02:44;14.90;;;13.60;;
75012;SDS011;63567;49.956;20.130;2023-09-12T03:05:10;14.25;;;12.98;;
75012;SDS011;63567;49.956;20.130;2023-09-12T03:07:35;14.97;;;13.67;;
75012;SDS011;63567;49.956;20.130;2023-09-12T03:10:00;14.83;;;13.53;;
75012;SDS011;63567;49.956;20.130;2023-09-12T03:12:26;14.32;;;13.10;;
75012;SDS011;63567;49.956;20.130;2023-09-12T03:14:51;14.27;;;12.97;;
75012;SDS011;63567;49.956;20.130;2023-09-12T03:17:17;13.23;;;12.03;;
75012;SDS011;63567;49.956;20.130;2023-09-12T03:19:42;14.20;;;12.90;;
75012;SDS011;63567;49.956;20.130;2023-09-12T03:22:07;12.90;;;11.70;;
75012;SDS011;63567;49.956;20.130;2023-09-12T03:24:32;14.03;;;12.83;;
75012;SDS011;63567;49.956;20.130;2023-09-12T03:26:58;13.17;;;11.97;;
75012;SDS011;63567;49.956;20.130;2023-09-12T03:29:23;15.27;;;13.87;;
75012;SDS011;63567;49.956;20.130;2023-09-12T03:31:48;15.13;;;13.73;;
75012;SDS011;63567;49.956;20.130;2023-09-12T03:34:13;16.30;;;14.90;;
75012;SDS011;63567;49.956;20.130;2023-09-12T03:36:39;14.10;;;12.80;;
75012;SDS011;63567;49.956;20.130;2023-09-12T03:39:04;13.77;;;12.53;;
75012;SDS011;63567;49.956;20.130;2023-09-12T03:41:33;13.68;;;12.50;;
75012;SDS011;63567;49.956;20.130;2023-09-12T03:43:59;12.40;;;11.20;;
75012;SDS011;63567;49.956;20.130;2023-09-12T03:46:24;14.52;;;13.10;;
75012;SDS011;63567;49.956;20.130;2023-09-12T03:48:50;14.17;;;12.97;;
75012;SDS011;63567;49.956;20.130;2023-09-12T03:51:15;14.43;;;13.17;;
75012;SDS011;63567;49.956;20.130;2023-09-12T03:53:40;15.43;;;14.03;;
75012;SDS011;63567;49.956;20.130;2023-09-12T03:56:05;14.73;;;13.53;;
75012;SDS011;63567;49.956;20.130;2023-09-12T03:58:31;16.63;;;15.23;;
75012;SDS011;63567;49.956;20.130;2023-09-12T04:00:56;14.65;;;13.45;;
75012;SDS011;63567;49.956;20.130;2023-09-12T04:03:22;14.47;;;13.17;;
75012;SDS011;63567;49.956;20.130;2023-09-12T04:05:47;14.50;;;13.23;;
75012;SDS011;63567;49.956;20.130;2023-09-12T04:08:13;14.55;;;13.25;;
75012;SDS011;63567;49.956;20.130;2023-09-12T04:10:38;14.60;;;13.32;;
75012;SDS011;63567;49.956;20.130;2023-09-12T04:13:04;14.70;;;13.50;;
75012;SDS011;63567;49.956;20.130;2023-09-12T04:15:29;13.27;;;12.17;;
75012;SDS011;63567;49.956;20.130;2023-09-12T04:17:54;13.53;;;12.33;;
75012;SDS011;63567;49.956;20.130;2023-09-12T04:20:20;13.87;;;12.77;;
75012;SDS011;63567;49.956;20.130;2023-09-12T04:22:45;14.63;;;13.33;;
75012;SDS011;63567;49.956;20.130;2023-09-12T04:25:11;14.23;;;13.00;;
75012;SDS011;63567;49.956;20.130;2023-09-12T04:27:36;14.77;;;13.50;;
75012;SDS011;63567;49.956;20.130;2023-09-12T04:30:02;14.15;;;12.70;;
75012;SDS011;63567;49.956;20.130;2023-09-12T04:32:28;13.35;;;12.10;;
75012;SDS011;63567;49.956;20.130;2023-09-12T04:34:54;14.18;;;12.98;;
75012;SDS011;63567;49.956;20.130;2023-09-12T04:37:19;12.80;;;11.60;;
75012;SDS011;63567;49.956;20.130;2023-09-12T04:39:45;14.17;;;12.97;;
75012;SDS011;63567;49.956;20.130;2023-09-12T04:42:10;14.40;;;13.13;;
75012;SDS011;63567;49.956;20.130;2023-09-12T04:44:36;13.13;;;11.93;;
75012;SDS011;63567;49.956;20.130;2023-09-12T04:47:01;14.25;;;12.95;;
75012;SDS011;63567;49.956;20.130;2023-09-12T04:49:27;14.02;;;12.70;;
75012;SDS011;63567;49.956;20.130;2023-09-12T04:51:53;14.10;;;12.90;;
75012;SDS011;63567;49.956;20.130;2023-09-12T04:54:18;13.95;;;12.80;;
75012;SDS011;63567;49.956;20.130;2023-09-12T04:56:44;13.37;;;12.17;;
75012;SDS011;63567;49.956;20.130;2023-09-12T04:59:09;14.63;;;13.33;;
75012;SDS011;63567;49.956;20.130;2023-09-12T05:01:34;11.40;;;10.20;;
75012;SDS011;63567;49.956;20.130;2023-09-12T05:03:59;13.17;;;12.00;;
75012;SDS011;63567;49.956;20.130;2023-09-12T05:06:25;13.10;;;12.00;;
75012;SDS011;63567;49.956;20.130;2023-09-12T05:08:50;13.27;;;12.17;;
75012;SDS011;63567;49.956;20.130;2023-09-12T05:11:15;13.40;;;12.30;;
75012;SDS011;63567;49.956;20.130;2023-09-12T05:13:40;12.63;;;11.43;;
75012;SDS011;63567;49.956;20.130;2023-09-12T05:16:06;13.43;;;12.32;;
75012;SDS011;63567;49.956;20.130;2023-09-12T05:18:31;13.40;;;12.18;;
75012;SDS011;63567;49.956;20.130;2023-09-12T05:20:57;14.13;;;12.83;;
75012;SDS011;63567;49.956;20.130;2023-09-12T05:23:22;11.07;;;9.97;;
75012;SDS011;63567;49.956;20.130;2023-09-12T05:25:47;14.37;;;13.27;;
75012;SDS011;63567;49.956;20.130;2023-09-12T05:28:12;13.47;;;12.37;;
75012;SDS011;63567;49.956;20.130;2023-09-12T05:30:41;13.32;;;12.02;;
75012;SDS011;63567;49.956;20.130;2023-09-12T05:33:10;14.05;;;12.77;;
75012;SDS011;63567;49.956;20.130;2023-09-12T05:35:35;11.53;;;10.43;;
75012;SDS011;63567;49.956;20.130;2023-09-12T05:38:02;13.55;;;12.38;;
75012;SDS011;63567;49.956;20.130;2023-09-12T05:40:28;13.20;;;12.00;;
75012;SDS011;63567;49.956;20.130;2023-09-12T05:42:53;13.63;;;12.40;;
75012;SDS011;63567;49.956;20.130;2023-09-12T05:45:18;13.80;;;12.50;;
75012;SDS011;63567;49.956;20.130;2023-09-12T05:47:44;13.30;;;12.10;;
75012;SDS011;63567;49.956;20.130;2023-09-12T05:50:09;14.97;;;13.60;;
75012;SDS011;63567;49.956;20.130;2023-09-12T05:52:34;14.40;;;13.10;;
75012;SDS011;63567;49.956;20.130;2023-09-12T05:54:59;13.77;;;12.53;;
75012;SDS011;63567;49.956;20.130;2023-09-12T05:57:25;14.20;;;13.10;;
75012;SDS011;63567;49.956;20.130;2023-09-12T05:59:50;13.13;;;12.03;;
75012;SDS011;63567;49.956;20.130;2023-09-12T06:02:15;13.47;;;12.30;;
75012;SDS011;63567;49.956;20.130;2023-09-12T06:04:42;13.25;;;12.05;;
75012;SDS011;63567;49.956;20.130;2023-09-12T06:07:08;13.43;;;12.15;;
75012;SDS011;63567;49.956;20.130;2023-09-12T06:09:33;14.73;;;13.50;;
75012;SDS011;63567;49.956;20.130;2023-09-12T06:11:58;13.93;;;12.67;;
75012;SDS011;63567;49.956;20.130;2023-09-12T06:14:23;13.80;;;12.57;;
75012;SDS011;63567;49.956;20.130;2023-09-12T06:16:49;11.73;;;10.53;;
75012;SDS011;63567;49.956;20.130;2023-09-12T06:19:14;13.87;;;12.57;;
75012;SDS011;63567;49.956;20.130;2023-09-12T06:21:39;13.60;;;12.40;;
75012;SDS011;63567;49.956;20.130;2023-09-12T06:24:12;14.98;;;13.77;;
75012;SDS011;63567;49.956;20.130;2023-09-12T06:26:39;15.38;;;14.18;;
75012;SDS011;63567;49.956;20.130;2023-09-12T06:29:05;15.13;;;13.93;;
75012;SDS011;63567;49.956;20.130;2023-09-12T06:31:30;13.98;;;12.73;;
75012;SDS011;63567;49.956;20.130;2023-09-12T06:33:56;13.38;;;12.18;;
75012;SDS011;63567;49.956;20.130;2023-09-12T06:36:22;14.20;;;13.00;;
75012;SDS011;63567;49.956;20.130;2023-09-12T06:38:48;12.23;;;11.02;;
75012;SDS011;63567;49.956;20.130;2023-09-12T06:41:14;14.65;;;13.45;;
75012;SDS011;63567;49.956;20.130;2023-09-12T06:43:39;15.17;;;13.87;;
75012;SDS011;63567;49.956;20.130;2023-09-12T06:46:04;15.17;;;13.90;;
75012;SDS011;63567;49.956;20.130;2023-09-12T06:48:30;12.23;;;11.13;;
75012;SDS011;63567;49.956;20.130;2023-09-12T06:50:55;14.20;;;13.10;;
75012;SDS011;63567;49.956;20.130;2023-09-12T06:53:20;14.63;;;13.43;;
75012;SDS011;63567;49.956;20.130;2023-09-12T06:55:45;11.37;;;10.10;;
75012;SDS011;63567;49.956;20.130;2023-09-12T06:58:11;13.47;;;12.33;;
75012;SDS011;63567;49.956;20.130;2023-09-12T07:00:37;14.93;;;13.73;;
75012;SDS011;63567;49.956;20.130;2023-09-12T07:03:02;13.67;;;12.57;;
75012;SDS011;63567;49.956;20.130;2023-09-12T07:05:27;15.88;;;14.57;;
75012;SDS011;63567;49.956;20.130;2023-09-12T07:07:53;14.57;;;13.37;;
75012;SDS011;63567;49.956;20.130;2023-09-12T07:10:18;15.93;;;14.73;;
75012;SDS011;63567;49.956;20.130;2023-09-12T07:12:43;16.90;;;15.50;;
75012;SDS011;63567;49.956;20.130;2023-09-12T07:15:09;12.87;;;11.67;;
75012;SDS011;63567;49.956;20.130;2023-09-12T07:17:34;14.68;;;13.43;;
75012;SDS011;63567;49.956;20.130;2023-09-12T07:20:00;15.43;;;14.13;;
75012;SDS011;63567;49.956;20.130;2023-09-12T07:22:25;15.45;;;14.25;;
75012;SDS011;63567;49.956;20.130;2023-09-12T07:24:51;13.88;;;12.57;;
75012;SDS011;63567;49.956;20.130;2023-09-12T07:27:16;14.53;;;13.33;;
75012;SDS011;63567;49.956;20.130;2023-09-12T07:29:41;15.10;;;13.83;;
75012;SDS011;63567;49.956;20.130;2023-09-12T07:32:07;14.30;;;13.23;;
75012;SDS011;63567;49.956;20.130;2023-09-12T07:34:32;12.73;;;11.83;;
75012;SDS011;63567;49.956;20.130;2023-09-12T07:36:58;11.88;;;10.77;;
75012;SDS011;63567;49.956;20.130;2023-09-12T07:39:23;20.27;;;18.98;;
75012;SDS011;63567;49.956;20.130;2023-09-12T07:41:48;14.38;;;13.07;;
75012;SDS011;63567;49.956;20.130;2023-09-12T07:44:14;15.27;;;14.17;;
75012;SDS011;63567;49.956;20.130;2023-09-12T07:46:41;15.20;;;13.90;;
75012;SDS011;63567;49.956;20.130;2023-09-12T07:49:06;14.63;;;13.45;;
75012;SDS011;63567;49.956;20.130;2023-09-12T07:51:34;14.85;;;13.75;;
75012;SDS011;63567;49.956;20.130;2023-09-12T07:54:00;15.45;;;14.35;;
75012;SDS011;63567;49.956;20.130;2023-09-12T07:56:26;13.85;;;12.70;;
75012;SDS011;63567;49.956;20.130;2023-09-12T07:58:51;12.83;;;11.83;;
75012;SDS011;63567;49.956;20.130;2023-09-12T08:01:16;16.10;;;14.80;;
75012;SDS011;63567;49.956;20.130;2023-09-12T08:03:42;14.13;;;13.03;;
75012;SDS011;63567;49.956;20.130;2023-09-12T08:06:08;14.25;;;13.13;;
75012;SDS011;63567;49.956;20.130;2023-09-12T08:08:34;15.15;;;14.05;;
75012;SDS011;63567;49.956;20.130;2023-09-12T08:10:59;15.77;;;14.57;;
75012;SDS011;63567;49.956;20.130;2023-09-12T08:13:26;15.60;;;14.40;;
75012;SDS011;63567;49.956;20.130;2023-09-12T08:15:52;15.63;;;14.52;;
75012;SDS011;63567;49.956;20.130;2023-09-12T08:18:18;21.55;;;20.15;;
75012;SDS011;63567;49.956;20.130;2023-09-12T08:20:43;16.40;;;15.13;;
75012;SDS011;63567;49.956;20.130;2023-09-12T08:23:09;17.55;;;16.23;;
75012;SDS011;63567;49.956;20.130;2023-09-12T08:25:34;18.73;;;17.33;;
75012;SDS011;63567;49.956;20.130;2023-09-12T08:28:00;17.48;;;16.25;;
75012;SDS011;63567;49.956;20.130;2023-09-12T08:30:25;16.77;;;15.67;;
75012;SDS011;63567;49.956;20.130;2023-09-12T08:32:50;19.30;;;18.10;;
75012;SDS011;63567;49.956;20.130;2023-09-12T08:35:16;16.95;;;15.75;;
75012;SDS011;63567;49.956;20.130;2023-09-12T08:37:41;18.35;;;17.15;;
75012;SDS011;63567;49.956;20.130;2023-09-12T08:40:08;18.40;;;17.08;;
75012;SDS011;63567;49.956;20.130;2023-09-12T08:42:38;18.13;;;16.83;;
75012;SDS011;63567;49.956;20.130;2023-09-12T08:45:06;17.05;;;15.85;;
75012;SDS011;63567;49.956;20.130;2023-09-12T08:47:42;17.98;;;16.70;;
75012;SDS011;63567;49.956;20.130;2023-09-12T08:50:10;12.32;;;11.38;;
75012;SDS011;63567;49.956;20.130;2023-09-12T08:52:37;17.33;;;16.23;;
75012;SDS011;63567;49.956;20.130;2023-09-12T08:55:03;19.88;;;18.55;;
75012;SDS011;63567;49.956;20.130;2023-09-12T08:57:29;18.63;;;17.33;;
75012;SDS011;63567;49.956;20.130;2023-09-12T08:59:57;18.13;;;16.92;;
75012;SDS011;63567;49.956;20.130;2023-09-12T09:02:27;19.42;;;18.13;;
75012;SDS011;63567;49.956;20.130;2023-09-12T09:04:52;17.05;;;15.75;;
75012;SDS011;63567;49.956;20.130;2023-09-12T09:07:19;21.27;;;19.98;;
75012;SDS011;63567;49.956;20.130;2023-09-12T09:09:46;18.85;;;17.55;;
75012;SDS011;63567;49.956;20.130;2023-09-12T09:12:11;23.90;;;22.48;;
75012;SDS011;63567;49.956;20.130;2023-09-12T09:14:37;21.87;;;20.57;;
75012;SDS011;63567;49.956;20.130;2023-09-12T09:17:02;20.00;;;18.75;;
75012;SDS011;63567;49.956;20.130;2023-09-12T09:19:40;21.60;;;20.20;;
75012;SDS011;63567;49.956;20.130;2023-09-12T09:22:07;19.35;;;18.20;;
75012;SDS011;63567;49.956;20.130;2023-09-12T09:24:32;12.55;;;11.55;;
75012;SDS011;63567;49.956;20.130;2023-09-12T09:26:57;21.63;;;20.40;;
75012;SDS011;63567;49.956;20.130;2023-09-12T09:29:25;20.73;;;19.52;;
75012;SDS011;63567;49.956;20.130;2023-09-12T09:31:51;23.17;;;21.98;;
75012;SDS011;63567;49.956;20.130;2023-09-12T09:34:18;21.42;;;20.13;;
75012;SDS011;63567;49.956;20.130;2023-09-12T09:36:46;23.30;;;21.92;;
75012;SDS011;63567;49.956;20.130;2023-09-12T09:39:13;15.52;;;14.43;;
75012;SDS011;63567;49.956;20.130;2023-09-12T09:41:39;25.30;;;23.98;;
75012;SDS011;63567;49.956;20.130;2023-09-12T09:44:07;23.50;;;22.10;;
75012;SDS011;63567;49.956;20.130;2023-09-12T09:46:34;24.25;;;22.88;;
75012;SDS011;63567;49.956;20.130;2023-09-12T09:49:00;25.17;;;23.77;;
75012;SDS011;63567;49.956;20.130;2023-09-12T09:51:26;25.83;;;24.30;;
75012;SDS011;63567;49.956;20.130;2023-09-12T09:53:51;14.65;;;13.55;;
75012;SDS011;63567;49.956;20.130;2023-09-12T09:56:17;27.17;;;25.65;;
75012;SDS011;63567;49.956;20.130;2023-09-12T10:03:38;24.55;;;23.25;;
75012;SDS011;63567;49.956;20.130;2023-09-12T10:06:05;23.02;;;21.83;;
75012;SDS011;63567;49.956;20.130;2023-09-12T10:08:33;24.48;;;23.20;;
75012;SDS011;63567;49.956;20.130;2023-09-12T10:11:00;26.33;;;24.98;;
75012;SDS011;63567;49.956;20.130;2023-09-12T10:13:27;24.27;;;22.98;;
75012;SDS011;63567;49.956;20.130;2023-09-12T10:15:56;27.27;;;25.92;;
75012;SDS011;63567;49.956;20.130;2023-09-12T10:18:23;20.98;;;19.88;;
75012;SDS011;63567;49.956;20.130;2023-09-12T10:20:52;22.88;;;21.67;;
75012;SDS011;63567;49.956;20.130;2023-09-12T10:23:26;25.30;;;24.10;;
75012;SDS011;63567;49.956;20.130;2023-09-12T10:25:55;16.38;;;15.38;;
75012;SDS011;63567;49.956;20.130;2023-09-12T10:28:22;24.73;;;23.52;;
75012;SDS011;63567;49.956;20.130;2023-09-12T10:30:48;23.98;;;22.75;;
75012;SDS011;63567;49.956;20.130;2023-09-12T10:33:14;28.45;;;27.15;;
75012;SDS011;63567;49.956;20.130;2023-09-12T10:35:40;17.85;;;16.65;;
75012;SDS011;63567;49.956;20.130;2023-09-12T10:38:06;27.52;;;26.23;;
75012;SDS011;63567;49.956;20.130;2023-09-12T10:40:35;27.80;;;26.60;;
75012;SDS011;63567;49.956;20.130;2023-09-12T10:43:01;29.92;;;28.55;;
75012;SDS011;63567;49.956;20.130;2023-09-12T10:47:56;15.25;;;14.38;;
75012;SDS011;63567;49.956;20.130;2023-09-12T10:50:22;26.70;;;25.57;;
75012;SDS011;63567;49.956;20.130;2023-09-12T10:52:47;26.88;;;25.67;;
75012;SDS011;63567;49.956;20.130;2023-09-12T10:55:16;33.33;;;31.93;;
75012;SDS011;63567;49.956;20.130;2023-09-12T10:58:04;29.10;;;27.90;;
75012;SDS011;63567;49.956;20.130;2023-09-12T11:00:30;14.18;;;13.35;;
75012;SDS011;63567;49.956;20.130;2023-09-12T11:05:53;32.65;;;31.25;;
75012;SDS011;63567;49.956;20.130;2023-09-12T11:08:19;36.03;;;34.55;;
75012;SDS011;63567;49.956;20.130;2023-09-12T11:10:45;29.13;;;27.83;;
75012;SDS011;63567;49.956;20.130;2023-09-12T11:13:45;32.28;;;30.80;;
75012;SDS011;63567;49.956;20.130;2023-09-12T11:16:15;34.88;;;33.42;;
75012;SDS011;63567;49.956;20.130;2023-09-12T11:19:11;34.42;;;32.97;;
75012;SDS011;63567;49.956;20.130;2023-09-12T11:21:42;36.03;;;34.58;;
75012;SDS011;63567;49.956;20.130;2023-09-12T11:24:09;35.15;;;33.75;;
75012;SDS011;63567;49.956;20.130;2023-09-12T11:26:34;34.73;;;33.23;;
75012;SDS011;63567;49.956;20.130;2023-09-12T11:29:13;40.50;;;38.80;;
75012;SDS011;63567;49.956;20.130;2023-09-12T11:31:38;42.72;;;41.08;;
75012;SDS011;63567;49.956;20.130;2023-09-12T11:34:08;41.33;;;39.53;;
75012;SDS011;63567;49.956;20.130;2023-09-12T11:36:41;41.50;;;39.92;;
75012;SDS011;63567;49.956;20.130;2023-09-12T11:39:21;31.95;;;30.65;;
75012;SDS011;63567;49.956;20.130;2023-09-12T11:41:50;33.65;;;32.35;;
75012;SDS011;63567;49.956;20.130;2023-09-12T11:44:16;39.83;;;38.22;;
75012;SDS011;63567;49.956;20.130;2023-09-12T11:46:43;43.10;;;41.40;;
75012;SDS011;63567;49.956;20.130;2023-09-12T11:49:12;39.50;;;38.00;;
75012;SDS011;63567;49.956;20.130;2023-09-12T11:51:51;48.53;;;46.70;;
75012;SDS011;63567;49.956;20.130;2023-09-12T11:54:24;48.58;;;46.88;;
75012;SDS011;63567;49.956;20.130;2023-09-12T11:56:50;52.45;;;50.58;;
75012;SDS011;63567;49.956;20.130;2023-09-12T11:59:22;44.83;;;43.03;;
75012;SDS011;63567;49.956;20.130;2023-09-12T12:01:48;45.95;;;44.15;;
75012;SDS011;63567;49.956;20.130;2023-09-12T12:04:13;52.63;;;50.72;;
75012;SDS011;63567;49.956;20.130;2023-09-12T12:06:39;48.95;;;47.15;;
75012;SDS011;63567;49.956;20.130;2023-09-12T12:09:05;53.10;;;51.10;;
75012;SDS011;63567;49.956;20.130;2023-09-12T12:11:31;53.45;;;51.45;;
75012;SDS011;63567;49.956;20.130;2023-09-12T12:13:57;50.88;;;49.08;;
75012;SDS011;63567;49.956;20.130;2023-09-12T12:16:24;28.00;;;26.77;;
75012;SDS011;63567;49.956;20.130;2023-09-12T12:18:50;53.88;;;52.00;;
75012;SDS011;63567;49.956;20.130;2023-09-12T12:21:19;58.95;;;56.95;;
75012;SDS011;63567;49.956;20.130;2023-09-12T12:23:44;61.35;;;59.03;;
75012;SDS011;63567;49.956;20.130;2023-09-12T12:26:10;53.60;;;51.60;;
75012;SDS011;63567;49.956;20.130;2023-09-12T12:28:35;57.97;;;55.97;;
75012;SDS011;63567;49.956;20.130;2023-09-12T12:31:01;58.27;;;56.33;;
75012;SDS011;63567;49.956;20.130;2023-09-12T12:33:27;52.75;;;50.85;;
75012;SDS011;63567;49.956;20.130;2023-09-12T12:36:25;55.90;;;53.90;;
75012;SDS011;63567;49.956;20.130;2023-09-12T12:38:45;53.75;;;51.75;;
75012;SDS011;63567;49.956;20.130;2023-09-12T12:41:12;62.65;;;60.50;;
75012;SDS011;63567;49.956;20.130;2023-09-12T12:43:41;56.20;;;54.30;;
75012;SDS011;63567;49.956;20.130;2023-09-12T12:46:09;51.92;;;50.05;;
75012;SDS011;63567;49.956;20.130;2023-09-12T12:48:36;51.45;;;49.65;;
75012;SDS011;63567;49.956;20.130;2023-09-12T12:53:44;29.08;;;27.73;;
75012;SDS011;63567;49.956;20.130;2023-09-12T12:56:14;47.97;;;46.28;;
75012;SDS011;63567;49.956;20.130;2023-09-12T12:58:44;71.30;;;69.05;;
75012;SDS011;63567;49.956;20.130;2023-09-12T13:01:12;58.42;;;56.38;;
75012;SDS011;63567;49.956;20.130;2023-09-12T13:03:38;28.42;;;27.13;;
75012;SDS011;63567;49.956;20.130;2023-09-12T13:06:03;62.93;;;60.83;;
75012;SDS011;63567;49.956;20.130;2023-09-12T13:08:28;71.67;;;69.27;;
75012;SDS011;63567;49.956;20.130;2023-09-12T13:10:54;66.83;;;64.53;;
75012;SDS011;63567;49.956;20.130;2023-09-12T13:13:19;57.33;;;55.25;;
75012;SDS011;63567;49.956;20.130;2023-09-12T13:15:44;64.07;;;61.90;;
75012;SDS011;63567;49.956;20.130;2023-09-12T13:18:10;56.75;;;54.80;;
75012;SDS011;63567;49.956;20.130;2023-09-12T13:20:35;56.13;;;54.10;;
75012;SDS011;63567;49.956;20.130;2023-09-12T13:23:00;69.57;;;67.30;;
75012;SDS011;63567;49.956;20.130;2023-09-12T13:25:26;69.30;;;67.07;;
75012;SDS011;63567;49.956;20.130;2023-09-12T13:27:51;77.10;;;74.73;;
75012;SDS011;63567;49.956;20.130;2023-09-12T13:30:16;80.47;;;78.07;;
75012;SDS011;63567;49.956;20.130;2023-09-12T13:32:41;69.77;;;67.50;;
75012;SDS011;63567;49.956;20.130;2023-09-12T13:35:07;69.27;;;67.07;;
75012;SDS011;63567;49.956;20.130;2023-09-12T13:37:33;73.45;;;71.15;;
75012;SDS011;63567;49.956;20.130;2023-09-12T13:39:58;81.95;;;79.35;;
75012;SDS011;63567;49.956;20.130;2023-09-12T13:42:23;85.03;;;82.32;;
75012;SDS011;63567;49.956;20.130;2023-09-12T13:44:49;80.43;;;77.93;;
75012;SDS011;63567;49.956;20.130;2023-09-12T13:47:15;77.20;;;74.78;;
75012;SDS011;63567;49.956;20.130;2023-09-12T13:49:47;74.90;;;72.50;;
75012;SDS011;63567;49.956;20.130;2023-09-12T13:52:12;69.43;;;67.18;;
75012;SDS011;63567;49.956;20.130;2023-09-12T13:54:39;36.35;;;34.85;;
75012;SDS011;63567;49.956;20.130;2023-09-12T13:57:04;72.27;;;69.97;;
75012;SDS011;63567;49.956;20.130;2023-09-12T13:59:29;81.53;;;79.03;;
75012;SDS011;63567;49.956;20.130;2023-09-12T14:01:55;69.20;;;67.00;;
75012;SDS011;63567;49.956;20.130;2023-09-12T14:04:20;87.10;;;84.43;;
75012;SDS011;63567;49.956;20.130;2023-09-12T14:06:45;90.50;;;87.83;;
75012;SDS011;63567;49.956;20.130;2023-09-12T14:09:10;78.63;;;76.13;;
75012;SDS011;63567;49.956;20.130;2023-09-12T14:11:36;44.37;;;42.70;;
75012;SDS011;63567;49.956;20.130;2023-09-12T14:14:01;69.90;;;67.63;;
75012;SDS011;63567;49.956;20.130;2023-09-12T14:16:27;68.80;;;66.60;;
75012;SDS011;63567;49.956;20.130;2023-09-12T14:18:53;71.60;;;69.40;;
75012;SDS011;63567;49.956;20.130;2023-09-12T14:21:18;66.40;;;64.17;;
75012;SDS011;63567;49.956;20.130;2023-09-12T14:23:43;70.53;;;68.20;;